Time;durP1;ratioP1;P1;durP2;ratioP2;P2;SDS_P1;SDS_P2;PMS_P1;PMS_P2;Temp;Humidity;BMP_temperature;BMP_pressure;BME280_temperature;BME280_humidity;BME280_pressure;Samples;Min_cycle;Max_cycle;Signal;HPM_P1;HPM_P2
2022/02/01 00:00:44;;;;;;;2.42;1.20;;;17.20;60.80;;;;;;4949882;28;20054;-21
2022/02/01 00:03:15;;;;;;;1.40;1.30;;;17.20;60.90;;;;;;4953672;28;20051;-21
2022/02/01 00:05:49;;;;;;;1.35;1.30;;;17.10;60.90;;;;;;4953745;28;20071;-21
2022/02/01 00:10:51;;;;;;;1.30;1.20;;;17.10;60.90;;;;;;4942371;28;20102;-21
2022/02/01 00:13:31;;;;;;;1.35;1.25;;;17.10;60.80;;;;;;4936466;28;20416;-20
2022/02/01 00:16:17;;;;;;;1.65;1.55;;;17.10;60.90;;;;;;4954296;28;20085;-21
2022/02/01 00:19:06;;;;;;;1.48;1.38;;;17.10;61.00;;;;;;4956955;28;20054;-21
2022/02/01 00:38:02;;;;;;;1.65;1.55;;;17.00;60.90;;;;;;4966375;28;20059;-21
2022/02/01 00:40:28;;;;;;;1.10;1.05;;;17.00;60.90;;;;;;4957556;28;20543;-20
2022/02/01 00:42:54;;;;;;;1.40;1.30;;;17.00;61.00;;;;;;4939891;28;20440;-21
2022/02/01 00:45:20;;;;;;;1.08;1.00;;;17.00;61.00;;;;;;4939876;28;20074;-21
2022/02/01 00:47:45;;;;;;;1.10;1.10;;;16.90;61.00;;;;;;4938864;28;20052;-21
2022/02/01 00:50:15;;;;;;;1.08;0.98;;;16.90;61.20;;;;;;4939152;28;20382;-22
2022/02/01 00:52:41;;;;;;;1.10;0.95;;;16.90;61.10;;;;;;4938742;28;20047;-21
2022/02/01 00:55:07;;;;;;;1.20;1.10;;;16.90;61.00;;;;;;4939305;28;20067;-21
2022/02/01 00:57:33;;;;;;;1.20;1.10;;;16.90;61.20;;;;;;4952126;28;21327;-21
2022/02/01 00:59:58;;;;;;;1.50;1.13;;;16.90;61.20;;;;;;4957082;28;20708;-22
2022/02/01 01:02:24;;;;;;;1.20;1.10;;;16.90;61.10;;;;;;4962267;28;20047;-21
2022/02/01 01:04:50;;;;;;;1.55;1.10;;;16.90;61.10;;;;;;4957318;28;20051;-21
2022/02/01 01:07:15;;;;;;;1.10;1.10;;;16.90;61.10;;;;;;4958439;28;20523;-21
2022/02/01 01:09:41;;;;;;;1.35;1.25;;;16.80;61.30;;;;;;4938595;28;20035;-21
2022/02/01 01:12:07;;;;;;;1.00;1.00;;;16.90;61.20;;;;;;4939210;28;20520;-21
2022/02/01 01:44:09;;;;;;;1.55;1.20;;;16.80;61.10;;;;;;4956982;28;20102;-21
2022/02/01 01:54:47;;;;;;;0.80;0.80;;;16.80;61.00;;;;;;4957530;28;20118;-22
2022/02/01 01:57:12;;;;;;;0.93;0.90;;;16.70;61.10;;;;;;4957823;28;20047;-20
2022/02/01 01:59:38;;;;;;;0.80;0.80;;;16.80;61.20;;;;;;4953114;28;20046;-21
2022/02/01 02:02:04;;;;;;;1.00;0.90;;;16.80;61.00;;;;;;4977461;28;20587;-21
2022/02/01 02:04:29;;;;;;;0.80;0.80;;;16.80;60.90;;;;;;4966307;28;20094;-21
2022/02/01 02:06:55;;;;;;;1.00;1.00;;;16.80;61.00;;;;;;4938594;28;20047;-21
2022/02/01 02:09:21;;;;;;;1.00;0.70;;;16.80;61.00;;;;;;4938734;28;20058;-21
2022/02/01 02:11:54;;;;;;;0.80;0.80;;;16.80;61.00;;;;;;4937085;28;20043;-21
2022/02/01 02:14:21;;;;;;;1.42;0.98;;;16.80;61.10;;;;;;4939327;28;20047;-21
2022/02/01 02:16:57;;;;;;;1.10;1.00;;;16.70;61.20;;;;;;4938197;28;20040;-21
2022/02/01 02:19:25;;;;;;;0.73;0.63;;;16.70;61.30;;;;;;4938310;28;20048;-21
2022/02/01 02:21:52;;;;;;;0.70;0.70;;;16.80;61.10;;;;;;4937788;28;20101;-21
2022/02/01 02:24:18;;;;;;;0.60;0.60;;;16.80;61.00;;;;;;4942277;28;20102;-21
2022/02/01 02:26:44;;;;;;;0.70;0.70;;;16.80;61.00;;;;;;4957234;28;20051;-22
2022/02/01 02:29:09;;;;;;;0.88;0.77;;;16.70;61.00;;;;;;4955238;28;20051;-21
2022/02/01 02:31:38;;;;;;;0.75;0.75;;;16.70;61.00;;;;;;4940748;28;20531;-21
2022/02/01 02:34:08;;;;;;;0.70;0.70;;;16.70;61.00;;;;;;4957050;28;20069;-20
2022/02/01 02:36:37;;;;;;;0.70;0.70;;;16.70;60.90;;;;;;4956572;28;20062;-22
2022/02/01 02:39:21;;;;;;;0.75;0.75;;;16.80;60.90;;;;;;4957578;28;20039;-21
2022/02/01 02:47:15;;;;;;;1.00;0.98;;;16.70;60.90;;;;;;4937977;28;20466;-21
2022/02/01 02:49:41;;;;;;;0.68;0.60;;;16.70;60.90;;;;;;4937747;28;20051;-22
2022/02/01 02:52:06;;;;;;;0.93;0.82;;;16.70;60.90;;;;;;4938512;28;20050;-20
2022/02/01 02:54:32;;;;;;;0.70;0.70;;;16.80;60.90;;;;;;4951477;28;20453;-22
2022/02/01 02:57:00;;;;;;;1.55;0.82;;;16.80;60.90;;;;;;4957285;28;20035;-21
2022/02/01 02:59:26;;;;;;;0.75;0.75;;;16.80;60.90;;;;;;4949656;28;20073;-20
2022/02/01 03:01:52;;;;;;;0.70;0.70;;;16.70;60.80;;;;;;4975753;28;20043;-20
2022/02/01 03:04:19;;;;;;;0.60;0.60;;;16.80;60.90;;;;;;4976811;28;20043;-20
2022/02/01 03:06:44;;;;;;;0.93;0.70;;;16.70;60.80;;;;;;4964778;28;20032;-21
2022/02/01 03:09:10;;;;;;;1.00;0.90;;;16.70;60.90;;;;;;4938057;28;20051;-21
2022/02/01 03:11:36;;;;;;;0.57;0.57;;;16.70;61.00;;;;;;4937543;28;20413;-21
2022/02/01 03:14:05;;;;;;;0.95;0.90;;;16.70;60.90;;;;;;4938011;28;20075;-21
2022/02/01 03:22:04;;;;;;;0.50;0.50;;;16.70;60.90;;;;;;4937245;28;20050;-21
2022/02/01 03:24:30;;;;;;;0.70;0.70;;;16.70;60.90;;;;;;4938121;28;20103;-21
2022/02/01 03:26:56;;;;;;;0.70;0.60;;;16.70;60.90;;;;;;4937716;28;20405;-20
2022/02/01 03:29:21;;;;;;;1.40;1.08;;;16.70;60.90;;;;;;4938002;28;20102;-22
2022/02/01 03:31:47;;;;;;;1.00;0.77;;;16.70;61.00;;;;;;4941250;28;20061;-22
2022/02/01 03:34:13;;;;;;;0.90;0.90;;;16.70;61.10;;;;;;4956883;28;20095;-21
2022/02/01 03:36:38;;;;;;;0.57;0.47;;;16.70;61.10;;;;;;4955882;28;20047;-21
2022/02/01 03:39:04;;;;;;;0.80;0.80;;;16.70;61.10;;;;;;4943901;28;20183;-21
2022/02/01 03:41:29;;;;;;;0.50;0.50;;;16.60;61.10;;;;;;4937471;28;20040;-21
2022/02/01 03:43:55;;;;;;;0.70;0.70;;;16.60;61.10;;;;;;4937192;28;20060;-21
2022/02/01 03:46:21;;;;;;;0.70;0.70;;;16.60;61.10;;;;;;4937509;28;20091;-21
2022/02/01 03:48:47;;;;;;;0.70;0.70;;;16.60;61.20;;;;;;4937234;28;20082;-21
2022/02/01 03:51:12;;;;;;;0.80;0.80;;;16.60;61.30;;;;;;4937735;28;20047;-21
2022/02/01 03:53:38;;;;;;;0.50;0.50;;;16.60;61.20;;;;;;4939216;28;20103;-23
2022/02/01 03:56:04;;;;;;;0.88;0.63;;;16.60;61.40;;;;;;4946781;28;20043;-21
2022/02/01 03:58:30;;;;;;;0.60;0.60;;;16.60;61.10;;;;;;4960535;28;20043;-22
2022/02/01 04:00:56;;;;;;;0.52;0.52;;;16.60;61.30;;;;;;4956463;28;20567;-20
2022/02/01 04:03:21;;;;;;;0.70;0.70;;;16.60;61.20;;;;;;4941174;28;20497;-20
2022/02/01 04:05:47;;;;;;;1.02;0.93;;;16.50;61.30;;;;;;4940231;28;20071;-21
2022/02/01 04:08:15;;;;;;;0.50;0.50;;;16.50;61.30;;;;;;4940959;28;20051;-21
2022/02/01 04:10:41;;;;;;;0.63;0.60;;;16.50;61.30;;;;;;4958256;28;20439;-20
2022/02/01 04:13:07;;;;;;;0.65;0.60;;;16.50;61.30;;;;;;4960250;28;20078;-21
2022/02/01 04:15:33;;;;;;;0.70;0.70;;;16.60;61.40;;;;;;4960089;28;21195;-20
2022/02/01 04:17:58;;;;;;;0.88;0.88;;;16.50;61.30;;;;;;4954942;28;20052;-21
2022/02/01 04:20:26;;;;;;;0.52;0.40;;;16.50;61.30;;;;;;4940552;28;20043;-20
2022/02/01 04:22:51;;;;;;;0.60;0.50;;;16.50;61.30;;;;;;4942316;28;20079;-22
2022/02/01 04:25:17;;;;;;;0.70;0.60;;;16.50;61.40;;;;;;4959901;28;20047;-21
2022/02/01 04:27:43;;;;;;;0.80;0.60;;;16.50;61.50;;;;;;4959161;28;20085;-21
2022/02/01 04:30:13;;;;;;;0.50;0.40;;;16.50;61.50;;;;;;4959989;28;20452;-21
2022/02/01 04:32:40;;;;;;;0.60;0.57;;;16.50;61.50;;;;;;4959560;28;20043;-21
2022/02/01 04:35:08;;;;;;;0.73;0.57;;;16.50;61.50;;;;;;4959160;28;20083;-21
2022/02/01 04:37:33;;;;;;;0.65;0.40;;;16.50;61.60;;;;;;4959102;28;20047;-21
2022/02/01 04:39:59;;;;;;;0.65;0.65;;;16.50;61.50;;;;;;4957385;28;20050;-21
2022/02/01 04:42:27;;;;;;;0.73;0.70;;;16.50;61.60;;;;;;4958931;28;20438;-21
2022/02/01 04:44:53;;;;;;;0.95;0.80;;;16.50;61.50;;;;;;4959189;28;20085;-21
2022/02/01 04:47:19;;;;;;;1.25;0.60;;;16.50;61.60;;;;;;4959610;28;20079;-20
2022/02/01 04:49:45;;;;;;;0.70;0.60;;;16.50;61.60;;;;;;4954644;28;20043;-21
2022/02/01 04:52:10;;;;;;;0.60;0.50;;;16.50;61.50;;;;;;4940162;28;20047;-21
2022/02/01 04:54:36;;;;;;;0.60;0.60;;;16.50;61.60;;;;;;4940153;28;20051;-21
2022/02/01 04:57:02;;;;;;;0.80;0.80;;;16.50;61.60;;;;;;4952893;28;20070;-21
2022/02/01 04:59:28;;;;;;;0.73;0.60;;;16.50;61.60;;;;;;4964077;28;20049;-20
2022/02/01 05:01:53;;;;;;;0.63;0.60;;;16.50;61.60;;;;;;4977874;28;20050;-21
2022/02/01 05:04:19;;;;;;;0.75;0.55;;;16.50;61.70;;;;;;4945902;28;20102;-21
2022/02/01 05:06:54;;;;;;;0.63;0.50;;;16.50;61.70;;;;;;4939207;28;20048;-22
2022/02/01 05:09:21;;;;;;;0.60;0.57;;;16.50;61.60;;;;;;4939587;28;20051;-22
2022/02/01 05:11:49;;;;;;;0.40;0.40;;;16.50;61.60;;;;;;4938922;28;20077;-22
2022/02/01 05:14:23;;;;;;;0.63;0.43;;;16.50;61.70;;;;;;4939929;28;20039;-21
2022/02/01 05:21:57;;;;;;;0.63;0.45;;;16.50;61.80;;;;;;4946942;28;20078;-21
2022/02/01 05:24:24;;;;;;;0.38;0.32;;;16.50;61.90;;;;;;4958796;28;20045;-21
2022/02/01 05:26:50;;;;;;;0.57;0.50;;;16.50;61.90;;;;;;4958259;28;20134;-21
2022/02/01 05:29:18;;;;;;;0.60;0.57;;;16.40;61.90;;;;;;4950729;28;20051;-21
2022/02/01 05:31:44;;;;;;;0.60;0.60;;;16.50;61.90;;;;;;4942860;28;20047;-21
2022/02/01 05:34:09;;;;;;;0.45;0.45;;;16.50;61.80;;;;;;4958733;28;20054;-21
2022/02/01 05:36:35;;;;;;;0.70;0.63;;;16.40;61.80;;;;;;4958333;28;20055;-21
2022/02/01 05:39:06;;;;;;;0.65;0.52;;;16.40;61.90;;;;;;4943064;28;20413;-21
2022/02/01 05:41:31;;;;;;;0.43;0.40;;;16.50;62.00;;;;;;4938947;28;20048;-21
2022/02/01 05:43:57;;;;;;;0.60;0.50;;;16.50;61.90;;;;;;4938907;28;20043;-22
2022/02/01 05:46:22;;;;;;;0.52;0.52;;;16.50;62.00;;;;;;4939358;28;20230;-21
2022/02/01 05:48:48;;;;;;;0.40;0.40;;;16.50;62.10;;;;;;4938867;28;20036;-20
2022/02/01 05:51:14;;;;;;;0.45;0.45;;;16.40;62.00;;;;;;4937814;28;20489;-20
2022/02/01 05:53:39;;;;;;;0.70;0.55;;;16.40;62.20;;;;;;4952471;28;20047;-21
2022/02/01 05:56:05;;;;;;;0.50;0.40;;;16.40;62.30;;;;;;4944096;28;20051;-22
2022/02/01 05:58:30;;;;;;;0.57;0.40;;;16.40;62.00;;;;;;4950355;28;20348;-22
2022/02/01 06:00:56;;;;;;;0.63;0.50;;;16.40;62.20;;;;;;4971540;28;20043;-22
2022/02/01 06:03:22;;;;;;;0.40;0.40;;;16.40;62.00;;;;;;4977398;28;20070;-22
2022/02/01 06:05:47;;;;;;;0.40;0.40;;;16.40;62.00;;;;;;4963784;28;20113;-22
2022/02/01 06:08:13;;;;;;;0.50;0.50;;;16.40;62.00;;;;;;4952659;28;20404;-21
2022/02/01 06:10:39;;;;;;;0.60;0.50;;;16.40;62.40;;;;;;4946622;28;20258;-21
2022/02/01 06:13:04;;;;;;;0.52;0.40;;;16.40;62.40;;;;;;4944462;28;20441;-21
2022/02/01 06:15:30;;;;;;;0.45;0.43;;;16.40;62.30;;;;;;4947538;28;20070;-22
2022/02/01 06:17:55;;;;;;;0.50;0.50;;;16.40;62.30;;;;;;4948404;28;20043;-21
2022/02/01 06:20:21;;;;;;;1.40;0.60;;;16.40;62.30;;;;;;4945813;28;20055;-21
2022/02/01 06:22:47;;;;;;;0.30;0.30;;;16.40;62.30;;;;;;4947137;28;20090;-22
2022/02/01 06:25:12;;;;;;;0.60;0.40;;;16.40;62.30;;;;;;4948364;28;20058;-20
2022/02/01 06:27:38;;;;;;;0.73;0.50;;;16.40;62.30;;;;;;4946341;28;20050;-21
2022/02/01 06:30:05;;;;;;;0.65;0.60;;;16.30;62.40;;;;;;4947457;28;20055;-21
2022/02/01 06:32:34;;;;;;;0.30;0.30;;;16.40;62.40;;;;;;4947123;28;20165;-21
2022/02/01 06:35:00;;;;;;;0.85;0.60;;;16.30;62.50;;;;;;4954137;28;20042;-20
2022/02/01 06:37:26;;;;;;;0.50;0.40;;;16.40;62.40;;;;;;4948585;28;20054;-21
2022/02/01 06:39:51;;;;;;;0.55;0.43;;;16.40;62.40;;;;;;4952261;28;20054;-21
2022/02/01 06:42:17;;;;;;;0.40;0.40;;;16.40;62.30;;;;;;4947576;28;20043;-21
2022/02/01 06:44:43;;;;;;;0.40;0.30;;;16.30;62.30;;;;;;4954018;28;20117;-21
2022/02/01 06:47:08;;;;;;;0.80;0.50;;;16.30;62.40;;;;;;4949525;28;20054;-21
2022/02/01 06:49:34;;;;;;;0.88;0.50;;;16.30;62.50;;;;;;4945815;28;20493;-21
2022/02/01 06:52:01;;;;;;;0.45;0.40;;;16.30;62.40;;;;;;4949076;28;20057;-21
2022/02/01 06:54:27;;;;;;;0.45;0.45;;;16.30;62.60;;;;;;4953020;28;20043;-20
2022/02/01 06:56:52;;;;;;;0.77;0.47;;;16.40;62.30;;;;;;4949562;28;20054;-21
2022/02/01 06:59:18;;;;;;;1.10;0.45;;;16.40;62.30;;;;;;4948194;28;20046;-21
2022/02/01 07:01:43;;;;;;;0.47;0.35;;;16.30;62.30;;;;;;4947860;28;20155;-22
2022/02/01 07:04:09;;;;;;;1.05;0.63;;;16.30;62.40;;;;;;4946075;28;20055;-21
2022/02/01 07:06:35;;;;;;;0.45;0.40;;;16.30;62.60;;;;;;4946306;28;20047;-21
2022/02/01 07:09:02;;;;;;;0.30;0.30;;;16.40;62.30;;;;;;4948457;28;20060;-21
2022/02/01 07:11:28;;;;;;;0.43;0.43;;;16.30;62.30;;;;;;4946003;28;20053;-22
2022/02/01 07:13:53;;;;;;;0.95;0.40;;;16.30;62.50;;;;;;4950062;28;20476;-21
2022/02/01 07:16:19;;;;;;;0.50;0.50;;;16.30;62.50;;;;;;4946299;28;20409;-20
2022/02/01 07:18:45;;;;;;;0.75;0.45;;;16.30;62.40;;;;;;4953609;28;20106;-21
2022/02/01 07:21:11;;;;;;;0.55;0.55;;;16.30;62.50;;;;;;4948404;28;20473;-21
2022/02/01 07:23:38;;;;;;;0.65;0.45;;;16.30;62.70;;;;;;4945958;28;20043;-21
2022/02/01 07:26:04;;;;;;;0.57;0.40;;;16.30;62.40;;;;;;4951306;28;20507;-21
2022/02/01 07:28:29;;;;;;;0.73;0.50;;;16.30;62.50;;;;;;4956852;28;20520;-21
2022/02/01 07:30:56;;;;;;;0.30;0.30;;;16.30;62.30;;;;;;4952273;28;20046;-22
2022/02/01 07:33:22;;;;;;;2.25;0.80;;;16.30;62.30;;;;;;4958544;28;20043;-21
2022/02/01 07:35:48;;;;;;;0.93;0.40;;;16.30;63.00;;;;;;4960758;28;20062;-21
2022/02/01 07:38:17;;;;;;;0.75;0.60;;;16.30;62.20;;;;;;4960436;28;20512;-21
2022/02/01 07:40:44;;;;;;;1.02;0.60;;;16.40;62.20;;;;;;4959945;28;20055;-21
2022/02/01 07:43:09;;;;;;;1.33;0.40;;;16.30;61.90;;;;;;4957764;28;20055;-21
2022/02/01 07:45:38;;;;;;;0.70;0.50;;;16.30;62.10;;;;;;4956309;28;20137;-21
2022/02/01 07:48:03;;;;;;;0.82;0.60;;;16.30;62.20;;;;;;4958550;28;20043;-21
2022/02/01 07:50:29;;;;;;;0.55;0.55;;;16.30;62.10;;;;;;4960406;28;20492;-21
2022/02/01 07:52:55;;;;;;;0.95;0.60;;;16.30;62.40;;;;;;4945094;28;20134;-22
2022/02/01 07:55:21;;;;;;;0.82;0.50;;;16.30;62.80;;;;;;4939525;28;20043;-22
2022/02/01 07:57:46;;;;;;;2.95;0.68;;;16.30;62.50;;;;;;4960183;28;20046;-25
2022/02/01 08:00:12;;;;;;;1.15;0.63;;;16.30;63.60;;;;;;4970480;28;20126;-22
2022/02/01 08:02:38;;;;;;;3.28;0.80;;;16.30;64.30;;;;;;4966695;28;20138;-22
2022/02/01 08:05:04;;;;;;;0.77;0.70;;;16.30;63.30;;;;;;4957227;28;20091;-22
2022/02/01 08:07:30;;;;;;;0.68;0.55;;;16.30;63.10;;;;;;4940521;28;20284;-23
2022/02/01 08:09:59;;;;;;;0.80;0.77;;;16.30;63.20;;;;;;4939779;28;20048;-22
2022/02/01 08:20:11;;;;;;;1.40;0.68;;;16.30;63.00;;;;;;4966541;28;20047;-23
2022/02/01 08:25:03;;;;;;;2.85;0.57;;;16.30;63.00;;;;;;4939989;28;20048;-22
2022/02/01 08:27:29;;;;;;;1.67;0.60;;;16.30;63.10;;;;;;4941168;28;20051;-22
2022/02/01 08:29:55;;;;;;;0.80;0.50;;;16.30;63.00;;;;;;4938684;28;20473;-23
2022/02/01 08:32:20;;;;;;;2.35;0.52;;;16.40;63.00;;;;;;4949345;28;20457;-23
2022/02/01 08:34:46;;;;;;;0.85;0.60;;;16.30;63.10;;;;;;4957456;28;20043;-23
2022/02/01 08:37:11;;;;;;;1.75;0.98;;;16.30;63.10;;;;;;4939938;28;20104;-22
2022/02/01 08:39:37;;;;;;;0.85;0.70;;;16.30;63.20;;;;;;4940019;28;20067;-23
2022/02/01 08:42:03;;;;;;;1.52;0.70;;;16.30;63.10;;;;;;4940026;28;20529;-22
2022/02/01 08:44:29;;;;;;;1.08;0.43;;;16.30;63.10;;;;;;4940268;28;20073;-23
2022/02/01 08:46:56;;;;;;;0.70;0.60;;;16.40;63.00;;;;;;4939970;28;20130;-23
2022/02/01 08:49:21;;;;;;;1.85;0.60;;;16.40;63.00;;;;;;4940078;28;20048;-22
2022/02/01 08:51:57;;;;;;;1.45;0.60;;;16.30;62.80;;;;;;4952366;28;20059;-23
2022/02/01 08:54:25;;;;;;;0.50;0.50;;;16.40;62.90;;;;;;4958374;28;20090;-23
2022/02/01 08:59:35;;;;;;;0.50;0.47;;;16.30;62.80;;;;;;4964511;28;20049;-23
2022/02/01 09:02:01;;;;;;;2.67;0.80;;;16.30;62.80;;;;;;4962722;28;20067;-23
2022/02/01 09:04:26;;;;;;;0.63;0.60;;;16.30;62.90;;;;;;4939928;28;20044;-23
2022/02/01 09:06:52;;;;;;;0.80;0.50;;;16.30;62.80;;;;;;4940181;28;20048;-22
2022/02/01 09:09:18;;;;;;;1.83;0.52;;;16.30;62.70;;;;;;4922226;28;20066;-23
2022/02/01 09:11:44;;;;;;;1.55;0.88;;;16.30;62.80;;;;;;4956710;28;20054;-23
2022/02/01 09:14:10;;;;;;;2.15;0.60;;;16.30;63.50;;;;;;4958336;28;20039;-23
2022/02/01 09:16:36;;;;;;;1.85;0.50;;;16.30;62.80;;;;;;4949538;28;20050;-23
2022/02/01 09:19:01;;;;;;;0.90;0.68;;;16.30;63.30;;;;;;4939078;28;20044;-23
2022/02/01 09:21:27;;;;;;;1.00;0.60;;;16.30;62.70;;;;;;4939689;28;20046;-22
2022/02/01 09:23:53;;;;;;;0.73;0.60;;;16.30;62.80;;;;;;4949858;28;20071;-22
2022/02/01 09:26:19;;;;;;;0.35;0.35;;;16.30;62.80;;;;;;4958294;28;20050;-22
2022/02/01 09:28:46;;;;;;;0.98;0.68;;;16.30;62.70;;;;;;4948439;28;20048;-23
2022/02/01 09:31:12;;;;;;;0.73;0.40;;;16.30;62.70;;;;;;4938968;28;20071;-23
2022/02/01 09:33:37;;;;;;;0.70;0.40;;;16.30;62.80;;;;;;4958546;28;20054;-23
2022/02/01 09:36:04;;;;;;;0.82;0.40;;;16.30;62.80;;;;;;4957722;28;20063;-23
2022/02/01 09:38:32;;;;;;;1.05;0.63;;;16.30;62.80;;;;;;4953444;28;20391;-23
2022/02/01 09:40:59;;;;;;;0.95;0.60;;;16.30;62.80;;;;;;4938598;28;20047;-23
2022/02/01 09:43:24;;;;;;;0.60;0.60;;;16.30;62.90;;;;;;4939485;28;20047;-23
2022/02/01 09:45:56;;;;;;;0.50;0.50;;;16.30;62.70;;;;;;4939169;28;20050;-23
2022/02/01 09:48:22;;;;;;;1.10;0.50;;;16.30;62.80;;;;;;4947929;28;20055;-23
2022/02/01 09:50:48;;;;;;;0.63;0.60;;;16.30;62.70;;;;;;4952966;28;20575;-23
2022/02/01 09:53:14;;;;;;;0.50;0.40;;;16.30;62.70;;;;;;4938639;28;20051;-23
2022/02/01 09:55:40;;;;;;;0.85;0.40;;;16.30;62.60;;;;;;4941669;28;20509;-22
2022/02/01 09:58:05;;;;;;;0.63;0.40;;;16.30;62.70;;;;;;4957783;28;20409;-23
2022/02/01 10:00:35;;;;;;;0.60;0.32;;;16.30;62.70;;;;;;4971151;28;20047;-23
2022/02/01 10:03:01;;;;;;;1.63;0.43;;;16.30;62.70;;;;;;4974080;28;20053;-22
2022/02/01 10:05:26;;;;;;;0.32;0.30;;;16.30;62.60;;;;;;4957935;28;20074;-24
2022/02/01 10:07:56;;;;;;;0.85;0.40;;;16.30;62.60;;;;;;4958347;28;20043;-22
2022/02/01 10:10:24;;;;;;;0.55;0.50;;;16.30;62.70;;;;;;4957370;28;20133;-22
2022/02/01 10:12:58;;;;;;;1.17;0.60;;;16.30;62.60;;;;;;4956827;28;20047;-22
2022/02/01 10:15:26;;;;;;;0.40;0.40;;;16.30;62.80;;;;;;4955950;28;20468;-23
2022/02/01 10:18:10;;;;;;;1.33;0.40;;;16.30;62.80;;;;;;4957773;28;20047;-23
2022/02/01 10:20:42;;;;;;;1.73;0.40;;;16.30;62.70;;;;;;4957132;28;20074;-23
2022/02/01 10:23:23;;;;;;;0.60;0.32;;;16.30;62.70;;;;;;4957260;28;20432;-23
2022/02/01 10:25:57;;;;;;;1.23;0.60;;;16.30;62.70;;;;;;4957663;28;20579;-23
2022/02/01 10:28:24;;;;;;;0.80;0.43;;;16.30;62.70;;;;;;4957162;28;20047;-23
2022/02/01 10:30:50;;;;;;;0.63;0.40;;;16.30;62.60;;;;;;4952283;28;20079;-22
2022/02/01 10:36:11;;;;;;;0.40;0.40;;;16.30;62.70;;;;;;4956665;28;20581;-23
2022/02/01 10:38:37;;;;;;;1.27;0.70;;;16.30;62.80;;;;;;4957695;28;20047;-22
2022/02/01 10:41:04;;;;;;;0.50;0.40;;;16.30;62.80;;;;;;4940902;28;20050;-22
2022/02/01 10:43:34;;;;;;;0.75;0.40;;;16.20;62.80;;;;;;4938457;28;20043;-22
2022/02/01 10:46:12;;;;;;;0.60;0.40;;;16.20;62.80;;;;;;4938299;28;20054;-22
2022/02/01 10:48:38;;;;;;;0.98;0.45;;;16.20;62.80;;;;;;4936603;28;20078;-23
2022/02/01 10:51:13;;;;;;;0.73;0.50;;;16.20;62.80;;;;;;4937490;28;20049;-22
2022/02/01 10:53:39;;;;;;;0.40;0.32;;;16.20;62.80;;;;;;4938175;28;20409;-24
2022/02/01 10:56:07;;;;;;;1.30;0.40;;;16.20;63.60;;;;;;4943337;28;20039;-22
2022/02/01 10:58:32;;;;;;;1.00;0.60;;;16.20;62.80;;;;;;4957511;28;20050;-22
2022/02/01 11:00:58;;;;;;;0.60;0.40;;;16.20;62.80;;;;;;4973880;28;20050;-22
2022/02/01 11:03:24;;;;;;;0.28;0.20;;;16.20;62.80;;;;;;4943514;28;20055;-23
2022/02/01 11:05:51;;;;;;;0.50;0.40;;;16.20;62.80;;;;;;4936567;28;20040;-21
2022/02/01 11:08:19;;;;;;;0.50;0.40;;;16.20;62.70;;;;;;4937729;28;20050;-22
2022/02/01 11:10:46;;;;;;;1.00;0.57;;;16.20;62.70;;;;;;4937899;28;20123;-24
2022/02/01 11:13:11;;;;;;;0.80;0.40;;;16.20;62.70;;;;;;4937555;28;20052;-23
2022/02/01 11:15:37;;;;;;;0.20;0.20;;;16.20;62.70;;;;;;4938062;28;20342;-23
2022/02/01 11:18:12;;;;;;;1.50;0.50;;;16.20;62.70;;;;;;4941011;28;20412;-23
2022/02/01 11:20:39;;;;;;;0.38;0.35;;;16.20;62.60;;;;;;4608442;28;10000561;-21
2022/02/01 11:23:10;;;;;;;2.80;0.38;;;16.30;62.80;;;;;;4938313;28;20339;-23
2022/02/01 11:25:50;;;;;;;0.57;0.43;;;16.20;62.80;;;;;;4947207;28;20055;-23
2022/02/01 11:29:01;;;;;;;0.63;0.50;;;16.30;62.80;;;;;;4938214;28;20524;-22
2022/02/01 11:31:30;;;;;;;0.40;0.32;;;16.30;62.80;;;;;;4941654;28;20054;-22
2022/02/01 11:33:56;;;;;;;0.60;0.57;;;16.30;63.20;;;;;;4939657;28;20062;-21
2022/02/01 11:36:21;;;;;;;0.32;0.30;;;16.30;62.90;;;;;;4946263;28;20067;-21
2022/02/01 11:38:58;;;;;;;0.50;0.20;;;16.30;63.00;;;;;;4944844;28;20066;-21
2022/02/01 11:41:34;;;;;;;0.50;0.30;;;16.30;63.00;;;;;;4941875;28;21409;-22
2022/02/01 11:44:09;;;;;;;0.45;0.45;;;16.30;63.00;;;;;;4945270;28;20043;-22
2022/02/01 11:46:35;;;;;;;2.50;0.50;;;16.30;63.00;;;;;;4937774;28;20390;-21
2022/02/01 11:49:01;;;;;;;0.55;0.43;;;16.30;63.10;;;;;;4939463;28;20480;-21
2022/02/01 11:51:28;;;;;;;0.50;0.35;;;16.30;63.00;;;;;;4936108;28;20066;-21
2022/02/01 11:54:00;;;;;;;0.43;0.40;;;16.30;63.10;;;;;;4943647;28;20090;-22
2022/02/01 11:56:40;;;;;;;0.47;0.30;;;16.30;63.10;;;;;;4941567;28;20496;-21
2022/02/01 11:59:07;;;;;;;0.40;0.40;;;16.30;63.00;;;;;;4936997;28;20074;-21
2022/02/01 12:01:37;;;;;;;0.75;0.30;;;16.40;63.00;;;;;;4937495;28;20057;-21
2022/02/01 12:04:11;;;;;;;1.55;0.45;;;16.30;63.00;;;;;;4939477;28;20524;-22
2022/02/01 12:06:44;;;;;;;0.68;0.40;;;16.40;63.10;;;;;;4932012;28;20090;-21
2022/02/01 12:09:15;;;;;;;1.00;0.50;;;16.30;63.10;;;;;;4937410;28;20103;-21
2022/02/01 12:11:41;;;;;;;1.55;0.30;;;16.40;63.00;;;;;;4939294;28;20298;-21
2022/02/01 12:14:07;;;;;;;3.95;0.30;;;16.40;63.00;;;;;;4939095;28;20135;-21
2022/02/01 12:16:33;;;;;;;0.45;0.32;;;16.40;63.10;;;;;;4940657;28;20131;-21
2022/02/01 12:19:05;;;;;;;0.55;0.30;;;16.40;62.90;;;;;;4945847;28;20043;-22
2022/02/01 12:21:57;;;;;;;0.57;0.45;;;16.40;62.90;;;;;;4941753;28;20043;-21
2022/02/01 12:24:24;;;;;;;0.40;0.35;;;16.50;62.80;;;;;;4942502;28;20054;-21
2022/02/01 12:26:50;;;;;;;1.15;0.60;;;16.40;62.90;;;;;;4947149;28;20766;-23
2022/02/01 12:29:16;;;;;;;0.60;0.30;;;16.50;62.80;;;;;;4944872;28;20055;-22
2022/02/01 12:31:42;;;;;;;0.60;0.60;;;16.40;63.00;;;;;;4950358;28;20049;-21
2022/02/01 12:34:11;;;;;;;0.50;0.30;;;16.40;63.20;;;;;;4952097;28;20461;-21
2022/02/01 12:36:52;;;;;;;1.02;0.60;;;16.40;63.00;;;;;;4951025;28;20074;-22
2022/02/01 12:39:29;;;;;;;0.30;0.25;;;16.40;63.20;;;;;;4960692;28;20049;-21
2022/02/01 12:42:02;;;;;;;0.50;0.28;;;16.40;63.00;;;;;;4954612;28;20135;-22
2022/02/01 12:46:59;;;;;;;2.35;0.65;;;16.40;63.00;;;;;;4948965;28;21747;-22
2022/02/01 12:49:44;;;;;;;0.25;0.20;;;16.50;63.10;;;;;;4955180;28;20054;-22
2022/02/01 12:52:17;;;;;;;1.13;0.40;;;16.50;62.80;;;;;;4958416;28;20047;-24
2022/02/01 12:54:42;;;;;;;0.70;0.60;;;16.50;62.60;;;;;;4956703;28;20113;-22
2022/02/01 12:57:10;;;;;;;0.65;0.50;;;16.60;62.60;;;;;;4947507;28;20135;-23
2022/02/01 12:59:46;;;;;;;0.30;0.25;;;16.60;62.70;;;;;;4955136;28;20047;-22
2022/02/01 13:02:14;;;;;;;1.40;0.50;;;16.60;62.30;;;;;;4958351;28;20071;-22
2022/02/01 13:04:39;;;;;;;0.30;0.22;;;16.60;62.30;;;;;;4957987;28;20489;-22
2022/02/01 13:07:17;;;;;;;0.60;0.30;;;16.60;62.30;;;;;;4949283;28;20421;-22
2022/02/01 13:15:11;;;;;;;0.68;0.50;;;16.60;62.40;;;;;;4946666;28;20059;-23
2022/02/01 13:20:12;;;;;;;0.52;0.40;;;16.60;62.30;;;;;;4958405;28;20047;-23
2022/02/01 13:23:07;;;;;;;0.50;0.30;;;16.50;62.20;;;;;;4954996;28;20051;-23
2022/02/01 13:25:44;;;;;;;0.30;0.30;;;16.50;62.20;;;;;;4940174;28;20102;-23
2022/02/01 13:28:11;;;;;;;0.55;0.50;;;16.50;62.20;;;;;;4951212;28;20075;-23
2022/02/01 13:30:38;;;;;;;0.50;0.40;;;16.50;62.20;;;;;;4956592;28;20085;-22
2022/02/01 13:33:12;;;;;;;0.70;0.30;;;16.50;62.20;;;;;;4958517;28;20473;-22
2022/02/01 13:35:48;;;;;;;;;;;16.50;62.10;;;;;;4945976;28;20172;-22
2022/02/01 13:38:13;;;;;;;0.40;0.32;;;16.50;62.20;;;;;;4957547;28;20277;-23
2022/02/01 13:40:39;;;;;;;1.77;0.55;;;16.50;62.20;;;;;;4939724;28;20131;-23
2022/02/01 13:43:19;;;;;;;0.85;0.52;;;16.50;62.20;;;;;;4956477;28;20047;-21
2022/02/01 13:45:45;;;;;;;0.98;0.45;;;16.50;62.20;;;;;;4954611;28;20099;-22
2022/02/01 13:48:27;;;;;;;1.05;0.40;;;16.50;62.30;;;;;;4955983;28;20051;-22
2022/02/01 13:50:56;;;;;;;0.70;0.32;;;16.50;62.20;;;;;;4957868;28;20051;-23
2022/02/01 13:53:21;;;;;;;0.70;0.50;;;16.40;62.30;;;;;;4953071;28;20051;-23
2022/02/01 13:56:00;;;;;;;0.68;0.40;;;16.40;62.20;;;;;;4954171;28;20179;-22
2022/02/01 13:58:26;;;;;;;0.32;0.22;;;16.50;62.20;;;;;;4949578;28;20083;-23
2022/02/01 14:00:54;;;;;;;0.40;0.40;;;16.40;62.20;;;;;;4949320;28;20047;-22
2022/02/01 14:03:36;;;;;;;0.55;0.30;;;16.40;62.30;;;;;;4957214;28;20103;-22
2022/02/01 14:08:47;;;;;;;0.45;0.45;;;16.40;62.30;;;;;;4950910;28;20580;-24
2022/02/01 14:31:59;;;;;;;0.43;0.30;;;16.30;62.40;;;;;;4938808;28;20054;-23
2022/02/01 14:34:35;;;;;;;0.25;0.20;;;16.30;62.40;;;;;;4952684;28;20117;-23
2022/02/01 14:37:07;;;;;;;0.30;0.30;;;16.30;62.40;;;;;;4955733;28;20608;-22
2022/02/01 14:44:44;;;;;;;;;;;16.40;62.30;;;;;;4956083;28;20054;-23
2022/02/01 14:47:11;;;;;;;0.40;0.30;;;16.40;62.30;;;;;;4951443;28;19918;-23
2022/02/01 14:49:37;;;;;;;0.50;0.30;;;16.30;62.20;;;;;;4956615;28;20517;-23
2022/02/01 14:52:05;;;;;;;0.25;0.20;;;16.30;62.40;;;;;;4956873;28;20421;-23
2022/02/01 14:54:36;;;;;;;0.73;0.60;;;16.30;62.30;;;;;;4944071;28;20047;-22
2022/02/01 15:13:21;;;;;;;0.68;0.30;;;16.30;62.50;;;;;;4937438;28;20062;-21
2022/02/01 15:15:47;;;;;;;0.32;0.30;;;16.30;62.40;;;;;;4954088;28;20107;-22